createdAt,value
2023-03-17T00:00:00.516Z,101510
2023-03-17T00:01:00.721Z,101510
2023-03-17T00:02:00.552Z,101510
2023-03-17T00:03:00.654Z,101510
2023-03-17T00:04:00.595Z,101510
2023-03-17T00:05:00.601Z,101510
2023-03-17T00:06:01.086Z,101510
2023-03-17T00:07:00.571Z,101510
2023-03-17T00:08:10.327Z,101510
2023-03-17T00:09:00.880Z,101510
2023-03-17T00:10:00.459Z,101510
2023-03-17T00:11:01.074Z,101510
2023-03-17T00:12:00.490Z,101510
2023-03-17T00:13:00.533Z,101510
2023-03-17T00:14:00.492Z,101510
2023-03-17T00:15:00.466Z,101510
2023-03-17T00:16:02.985Z,101510
2023-03-17T00:17:00.666Z,101510
2023-03-17T00:18:00.548Z,101510
2023-03-17T00:19:00.468Z,101510
2023-03-17T00:20:00.491Z,101510
2023-03-17T00:21:00.593Z,101510
2023-03-17T00:22:01.497Z,101510
2023-03-17T00:23:01.779Z,101510
2023-03-17T00:24:00.564Z,101510
2023-03-17T00:25:00.466Z,101510
2023-03-17T00:26:00.486Z,101510
2023-03-17T00:27:01.041Z,101510
2023-03-17T00:28:01.076Z,101510
2023-03-17T00:29:00.489Z,101510
2023-03-17T00:30:00.507Z,101510
2023-03-17T00:31:01.000Z,101510
2023-03-17T00:32:00.564Z,101510
2023-03-17T01:53:00.490Z,101480
2023-03-17T01:54:02.238Z,101490
2023-03-17T01:55:00.473Z,101480
2023-03-17T01:56:00.977Z,101480
2023-03-17T01:57:02.714Z,101480
2023-03-17T01:58:00.727Z,101480
2023-03-17T01:59:01.864Z,101480
2023-03-17T02:00:01.535Z,101480
2023-03-17T02:01:00.512Z,101490
2023-03-17T02:02:03.890Z,101480
2023-03-17T02:03:00.482Z,101480
2023-03-17T02:04:00.547Z,101480
2023-03-17T02:05:01.109Z,101480
2023-03-17T02:06:00.747Z,101470
2023-03-17T02:07:00.986Z,101470
2023-03-17T02:08:00.544Z,101470
2023-03-17T02:09:00.748Z,101470
2023-03-17T02:10:01.753Z,101470
2023-03-17T02:11:00.626Z,101460
2023-03-17T02:12:01.560Z,101460
2023-03-17T02:13:01.203Z,101460
2023-03-17T02:14:00.579Z,101460
2023-03-17T02:15:00.727Z,101460
2023-03-17T02:16:00.461Z,101460
2023-03-17T02:17:00.596Z,101460
2023-03-17T02:18:00.466Z,101460
2023-03-17T02:19:00.498Z,101450
2023-03-17T02:20:10.312Z,101450
2023-03-17T02:21:00.441Z,101450
2023-03-17T02:22:00.757Z,101450
2023-03-17T02:23:00.817Z,101450
2023-03-17T02:24:02.202Z,101450
2023-03-17T02:25:00.602Z,101450
2023-03-17T02:26:00.560Z,101450
2023-03-17T02:27:03.376Z,101450
2023-03-17T02:28:05.666Z,101450
2023-03-17T02:29:00.822Z,101450
2023-03-17T02:30:01.173Z,101450
2023-03-17T02:31:00.519Z,101450
2023-03-17T02:32:00.979Z,101450
2023-03-17T02:33:00.967Z,101450
2023-03-17T02:34:00.843Z,101450
2023-03-17T02:35:00.713Z,101450
2023-03-17T02:36:00.488Z,101450
2023-03-17T02:37:00.710Z,101450
2023-03-17T02:38:00.516Z,101440
2023-03-17T02:39:00.477Z,101450
2023-03-17T02:40:00.674Z,101450
2023-03-17T02:41:00.578Z,101450
2023-03-17T02:42:00.637Z,101450
2023-03-17T02:43:00.512Z,101450
2023-03-17T02:44:00.491Z,101440
2023-03-17T02:45:00.451Z,101440
2023-03-17T02:46:00.610Z,101450
2023-03-17T02:47:00.473Z,101450
2023-03-17T02:48:00.524Z,101440
2023-03-17T02:49:00.748Z,101440
2023-03-17T02:50:00.880Z,101440
2023-03-17T02:51:00.426Z,101440
2023-03-17T02:52:00.512Z,101440
2023-03-17T02:53:00.504Z,101440
2023-03-17T02:54:00.459Z,101440
2023-03-17T02:55:00.444Z,101440
2023-03-17T02:56:00.442Z,101430
2023-03-17T02:57:00.834Z,101440
2023-03-17T02:58:00.543Z,101440
2023-03-17T02:59:00.479Z,101440
2023-03-17T03:00:00.592Z,101440
2023-03-17T03:01:00.481Z,101440
2023-03-17T03:02:00.443Z,101430
2023-03-17T03:03:00.498Z,101440
2023-03-17T03:04:00.459Z,101430
2023-03-17T03:05:00.523Z,101440
2023-03-17T03:06:03.022Z,101430
2023-03-17T03:07:00.606Z,101440
2023-03-17T03:08:00.597Z,101430
2023-03-17T03:09:00.560Z,101430
2023-03-17T03:10:00.476Z,101430
2023-03-17T03:11:00.478Z,101430
2023-03-17T03:12:00.571Z,101430
2023-03-17T03:13:00.507Z,101430
2023-03-17T03:14:00.466Z,101420
2023-03-17T03:15:00.485Z,101430
2023-03-17T03:16:00.625Z,101420
2023-03-17T03:17:00.521Z,101420
2023-03-17T03:18:00.464Z,101420
2023-03-17T03:19:00.508Z,101420
2023-03-17T03:20:00.756Z,101420
2023-03-17T03:21:00.864Z,101420
2023-03-17T03:22:00.431Z,101420
2023-03-17T03:23:00.598Z,101420
2023-03-17T03:24:00.501Z,101420
2023-03-17T03:25:00.452Z,101420
2023-03-17T03:26:00.512Z,101420
2023-03-17T03:27:00.496Z,101410
2023-03-17T03:28:00.461Z,101420
2023-03-17T03:29:00.584Z,101420
2023-03-17T03:30:01.010Z,101420
2023-03-17T03:31:00.623Z,101420
2023-03-17T03:32:00.495Z,101420
2023-03-17T03:33:00.646Z,101420
2023-03-17T03:34:00.442Z,101420
2023-03-17T03:35:00.537Z,101420
2023-03-17T03:36:00.539Z,101420
2023-03-17T03:37:00.589Z,101420
2023-03-17T03:38:00.832Z,101420
2023-03-17T03:39:00.454Z,101420
2023-03-17T03:40:00.484Z,101420
2023-03-17T03:41:00.967Z,101420
2023-03-17T03:42:00.486Z,101420
2023-03-17T03:43:03.792Z,101420
2023-03-17T03:44:00.785Z,101420
2023-03-17T03:45:00.449Z,101420
2023-03-17T03:46:00.719Z,101420
2023-03-17T03:47:00.441Z,101420
2023-03-17T03:48:00.521Z,101420
2023-03-17T03:49:00.454Z,101420
2023-03-17T03:50:00.522Z,101420
2023-03-17T03:51:01.183Z,101420
2023-03-17T03:52:00.527Z,101420
2023-03-17T03:53:00.461Z,101420
2023-03-17T03:54:00.462Z,101420
2023-03-17T03:55:00.463Z,101430
2023-03-17T03:56:00.464Z,101420
2023-03-17T03:57:00.471Z,101420
2023-03-17T03:58:00.443Z,101430
2023-03-17T03:59:00.436Z,101420
2023-03-17T04:00:00.794Z,101420
2023-03-17T04:01:05.443Z,101420
2023-03-17T04:02:00.519Z,101420
2023-03-17T04:03:00.599Z,101420
2023-03-17T04:04:00.533Z,101430
2023-03-17T04:05:00.561Z,101420
2023-03-17T04:06:00.494Z,101420
2023-03-17T04:07:00.467Z,101430
2023-03-17T04:08:00.489Z,101420
2023-03-17T04:09:00.491Z,101420
2023-03-17T04:10:00.672Z,101420
2023-03-17T04:11:00.456Z,101430
2023-03-17T04:12:00.548Z,101430
2023-03-17T04:13:00.470Z,101430
2023-03-17T04:14:00.680Z,101420
2023-03-17T04:15:00.438Z,101430
2023-03-17T04:16:00.474Z,101420
2023-03-17T04:17:00.443Z,101420
2023-03-17T04:18:00.422Z,101430
2023-03-17T04:19:00.505Z,101430
2023-03-17T04:20:00.460Z,101430
2023-03-17T04:21:00.479Z,101430
2023-03-17T04:22:00.495Z,101430
2023-03-17T04:23:00.477Z,101430
2023-03-17T04:24:00.425Z,101430
2023-03-17T04:25:00.531Z,101430
2023-03-17T04:26:00.500Z,101430
2023-03-17T04:27:00.852Z,101430
2023-03-17T04:28:00.461Z,101430
2023-03-17T04:29:00.468Z,101440
2023-03-17T04:30:00.641Z,101440
2023-03-17T04:31:00.457Z,101440
2023-03-17T04:32:00.843Z,101440
2023-03-17T04:33:00.514Z,101440
2023-03-17T04:34:00.548Z,101440
2023-03-17T04:35:00.566Z,101440
2023-03-17T04:36:00.542Z,101440
2023-03-17T04:37:00.453Z,101440
2023-03-17T04:38:00.525Z,101450
2023-03-17T04:39:00.452Z,101450
2023-03-17T04:40:00.662Z,101450
2023-03-17T04:41:00.452Z,101450
2023-03-17T04:42:00.484Z,101450
2023-03-17T04:43:02.428Z,101450
2023-03-17T04:44:00.439Z,101450
2023-03-17T04:45:00.521Z,101450
2023-03-17T04:46:00.536Z,101450
2023-03-17T04:47:00.518Z,101450
2023-03-17T04:48:00.484Z,101450
2023-03-17T04:49:00.943Z,101450
2023-03-17T04:50:00.582Z,101450
2023-03-17T04:51:00.497Z,101450
2023-03-17T04:52:00.500Z,101450
2023-03-17T04:53:00.572Z,101440
2023-03-17T04:54:00.423Z,101440
2023-03-17T04:55:00.474Z,101440
2023-03-17T04:56:00.488Z,101440
2023-03-17T04:57:00.514Z,101440
2023-03-17T04:58:00.480Z,101440
2023-03-17T04:59:00.566Z,101450
2023-03-17T05:00:00.444Z,101440
2023-03-17T05:01:00.506Z,101450
2023-03-17T05:02:00.448Z,101450
2023-03-17T05:03:00.435Z,101450
2023-03-17T05:04:00.498Z,101450
2023-03-17T05:05:00.453Z,101450
2023-03-17T05:06:02.965Z,101450
2023-03-17T05:07:00.458Z,101450
2023-03-17T05:08:00.573Z,101440
2023-03-17T05:09:00.659Z,101440
2023-03-17T05:10:00.461Z,101440
2023-03-17T05:11:00.478Z,101440
2023-03-17T05:12:00.494Z,101440
2023-03-17T05:13:00.462Z,101450
2023-03-17T05:14:00.471Z,101450
2023-03-17T05:15:00.480Z,101440
2023-03-17T05:16:00.487Z,101440
2023-03-17T05:17:00.553Z,101440
2023-03-17T05:18:00.520Z,101440
2023-03-17T05:19:00.445Z,101440
2023-03-17T05:20:00.714Z,101440
2023-03-17T05:21:00.548Z,101440
2023-03-17T05:22:00.446Z,101440
2023-03-17T05:23:00.460Z,101440
2023-03-17T05:24:00.449Z,101440
2023-03-17T05:25:00.608Z,101440
2023-03-17T05:26:00.812Z,101440
2023-03-17T05:27:00.457Z,101440
2023-03-17T05:28:00.472Z,101440
2023-03-17T05:29:00.741Z,101440
2023-03-17T05:30:00.477Z,101440
2023-03-17T05:31:00.592Z,101440
2023-03-17T05:32:00.475Z,101430
2023-03-17T05:33:00.508Z,101430
2023-03-17T05:34:00.458Z,101440
2023-03-17T05:35:00.455Z,101440
2023-03-17T05:36:00.507Z,101440
2023-03-17T05:37:00.474Z,101430
2023-03-17T05:38:00.475Z,101440
2023-03-17T05:39:00.457Z,101430
2023-03-17T05:40:00.503Z,101440
2023-03-17T05:41:00.542Z,101430
2023-03-17T05:42:00.567Z,101430
2023-03-17T05:43:00.963Z,101430
2023-03-17T05:44:00.429Z,101430
2023-03-17T05:45:00.422Z,101430
2023-03-17T05:46:00.569Z,101430
2023-03-17T05:47:00.502Z,101430
2023-03-17T05:48:00.496Z,101430
2023-03-17T05:49:00.520Z,101430
2023-03-17T05:50:00.882Z,101420
2023-03-17T05:51:00.482Z,101420
2023-03-17T05:52:00.490Z,101420
2023-03-17T05:53:00.540Z,101420
2023-03-17T05:54:00.438Z,101420
2023-03-17T05:55:00.453Z,101420
2023-03-17T05:56:00.555Z,101410
2023-03-17T05:57:00.452Z,101410
2023-03-17T05:58:00.467Z,101420
2023-03-17T05:59:00.760Z,101410
2023-03-17T06:00:00.528Z,101420
2023-03-17T06:01:00.429Z,101410
2023-03-17T06:02:00.826Z,101410
2023-03-17T06:03:00.472Z,101410
2023-03-17T06:04:00.565Z,101410
2023-03-17T06:05:00.462Z,101410
2023-03-17T06:06:00.456Z,101410
2023-03-17T06:07:00.483Z,101410
2023-03-17T06:08:00.647Z,101420
2023-03-17T06:09:00.676Z,101420
2023-03-17T06:10:00.525Z,101420
2023-03-17T06:11:00.417Z,101420
2023-03-17T06:12:00.505Z,101420
2023-03-17T06:13:03.294Z,101420
2023-03-17T06:14:00.466Z,101420
2023-03-17T06:15:00.529Z,101420
2023-03-17T06:16:00.497Z,101430
2023-03-17T06:17:00.822Z,101430
2023-03-17T06:18:00.628Z,101430
2023-03-17T06:19:00.487Z,101430
2023-03-17T06:20:00.441Z,101430
2023-03-17T06:21:00.434Z,101430
2023-03-17T06:22:00.440Z,101430
2023-03-17T06:23:05.037Z,101430
2023-03-17T06:24:00.513Z,101430
2023-03-17T06:25:00.521Z,101430
2023-03-17T06:26:00.555Z,101430
2023-03-17T06:27:00.502Z,101430
2023-03-17T06:28:00.870Z,101430
2023-03-17T06:29:00.434Z,101440
2023-03-17T06:30:00.472Z,101430
2023-03-17T06:31:00.601Z,101440
2023-03-17T06:32:17.128Z,101440
2023-03-17T06:33:00.827Z,101440
2023-03-17T06:34:00.533Z,101440
2023-03-17T06:35:00.981Z,101440
2023-03-17T06:36:00.538Z,101440
2023-03-17T06:37:00.566Z,101440
2023-03-17T06:38:00.491Z,101450
2023-03-17T06:39:00.489Z,101450
2023-03-17T06:40:00.530Z,101440
2023-03-17T06:41:00.424Z,101450
2023-03-17T06:42:00.566Z,101450
2023-03-17T06:43:00.677Z,101450
2023-03-17T06:44:00.446Z,101450
2023-03-17T06:45:00.426Z,101450
2023-03-17T06:46:00.769Z,101460
2023-03-17T06:47:00.464Z,101460
2023-03-17T06:48:00.718Z,101460
2023-03-17T06:49:00.708Z,101470
2023-03-17T06:50:00.520Z,101470
2023-03-17T06:51:00.837Z,101470
2023-03-17T06:52:00.497Z,101470
2023-03-17T06:53:00.443Z,101470
2023-03-17T06:54:00.452Z,101470
2023-03-17T06:55:00.767Z,101470
2023-03-17T06:56:00.573Z,101470
2023-03-17T06:57:00.491Z,101470
2023-03-17T06:58:00.500Z,101470
2023-03-17T06:59:00.493Z,101470
2023-03-17T07:00:00.446Z,101470
2023-03-17T07:01:00.493Z,101470
2023-03-17T07:02:00.612Z,101470
2023-03-17T07:03:00.479Z,101470
2023-03-17T07:04:00.509Z,101470
2023-03-17T07:05:00.631Z,101460
2023-03-17T07:06:00.656Z,101460
2023-03-17T07:07:00.466Z,101470
2023-03-17T07:08:00.523Z,101460
2023-03-17T07:09:02.265Z,101460
2023-03-17T07:10:00.770Z,101460
2023-03-17T07:11:00.622Z,101470
2023-03-17T07:12:00.857Z,101470
2023-03-17T07:13:00.470Z,101470
2023-03-17T07:14:00.766Z,101470
2023-03-17T07:15:00.516Z,101470
2023-03-17T07:16:01.039Z,101460
2023-03-17T07:17:01.247Z,101470
2023-03-17T07:18:00.833Z,101460
2023-03-17T07:19:00.541Z,101460
2023-03-17T07:20:00.513Z,101460
2023-03-17T07:21:01.000Z,101460
2023-03-17T07:22:00.432Z,101460
2023-03-17T07:23:00.512Z,101460
2023-03-17T07:24:00.587Z,101460
2023-03-17T07:25:00.566Z,101460
2023-03-17T07:26:00.476Z,101460
2023-03-17T07:27:00.573Z,101460
2023-03-17T07:28:00.456Z,101460
2023-03-17T07:29:00.477Z,101460
2023-03-17T07:30:00.817Z,101460
2023-03-17T07:31:00.672Z,101460
2023-03-17T07:32:00.552Z,101460
2023-03-17T07:33:00.552Z,101470
2023-03-17T07:34:00.483Z,101470
2023-03-17T07:35:00.517Z,101470
2023-03-17T07:36:00.615Z,101470
2023-03-17T07:37:01.062Z,101470
2023-03-17T07:38:00.533Z,101470
2023-03-17T07:39:00.497Z,101470
2023-03-17T07:40:00.490Z,101470
2023-03-17T07:41:00.504Z,101470
2023-03-17T07:42:00.974Z,101470
2023-03-17T07:43:00.635Z,101470
2023-03-17T07:44:00.482Z,101470
2023-03-17T07:45:00.750Z,101470
2023-03-17T07:46:00.549Z,101470
2023-03-17T07:47:00.477Z,101470
2023-03-17T07:48:01.596Z,101460
2023-03-17T07:49:00.475Z,101460
2023-03-17T07:50:00.562Z,101460
2023-03-17T07:51:00.559Z,101460
2023-03-17T07:52:00.487Z,101460
2023-03-17T07:53:00.877Z,101460
2023-03-17T07:54:00.532Z,101460
2023-03-17T07:55:00.691Z,101460
2023-03-17T07:56:00.504Z,101460
2023-03-17T07:57:00.531Z,101460
2023-03-17T07:58:00.557Z,101460
2023-03-17T07:59:00.770Z,101460
2023-03-17T08:00:00.506Z,101460
2023-03-17T08:01:00.586Z,101470
2023-03-17T08:02:01.469Z,101470
2023-03-17T08:03:09.834Z,101470
2023-03-17T08:04:00.571Z,101470
2023-03-17T08:05:00.630Z,101470
2023-03-17T08:06:00.475Z,101470
2023-03-17T08:07:00.514Z,101470
2023-03-17T08:08:00.508Z,101480
2023-03-17T08:09:00.522Z,101480
2023-03-17T08:10:00.527Z,101480
2023-03-17T08:11:01.329Z,101480
2023-03-17T08:12:00.467Z,101480
2023-03-17T08:13:00.468Z,101480
2023-03-17T08:14:00.722Z,101490
2023-03-17T08:15:00.484Z,101490
2023-03-17T08:16:00.668Z,101490
2023-03-17T08:17:00.549Z,101480
2023-03-17T08:18:00.487Z,101490
2023-03-17T08:19:00.464Z,101480
2023-03-17T08:20:00.482Z,101480
2023-03-17T08:21:00.541Z,101480
2023-03-17T08:22:00.499Z,101490
2023-03-17T08:23:00.516Z,101480
2023-03-17T08:24:00.558Z,101490
2023-03-17T08:25:00.480Z,101490
2023-03-17T08:26:01.345Z,101490
2023-03-17T08:27:01.050Z,101490
2023-03-17T08:28:00.447Z,101490
2023-03-17T08:29:00.528Z,101490
2023-03-17T08:30:00.533Z,101490
2023-03-17T08:31:05.622Z,101490
2023-03-17T08:32:00.643Z,101490
2023-03-17T08:33:00.522Z,101490
2023-03-17T08:34:00.486Z,101490
2023-03-17T08:35:00.525Z,101500
2023-03-17T08:36:03.085Z,101500
2023-03-17T08:37:00.612Z,101490
2023-03-17T08:38:00.533Z,101500
2023-03-17T08:39:00.510Z,101510
2023-03-17T08:40:00.482Z,101510
2023-03-17T08:41:01.678Z,101510
2023-03-17T08:42:01.844Z,101520
2023-03-17T08:43:00.516Z,101510
2023-03-17T08:44:00.502Z,101510
2023-03-17T08:45:00.605Z,101500
2023-03-17T08:46:03.472Z,101500
2023-03-17T08:47:00.482Z,101500
2023-03-17T08:48:00.878Z,101490
2023-03-17T08:49:00.620Z,101500
2023-03-17T08:50:00.498Z,101490
2023-03-17T08:51:00.505Z,101500
2023-03-17T08:52:00.502Z,101500
2023-03-17T08:53:00.522Z,101500
2023-03-17T08:54:01.095Z,101500
2023-03-17T08:55:00.516Z,101510
2023-03-17T08:56:00.766Z,101510
2023-03-17T08:57:00.566Z,101510
2023-03-17T08:58:00.489Z,101510
2023-03-17T08:59:00.578Z,101510
2023-03-17T09:00:00.849Z,101500
2023-03-17T09:01:01.384Z,101510
2023-03-17T09:02:00.508Z,101500
2023-03-17T09:03:00.725Z,101500
2023-03-17T09:04:00.935Z,101510
2023-03-17T09:05:00.555Z,101500
2023-03-17T09:06:00.551Z,101500
2023-03-17T09:07:04.076Z,101510
2023-03-17T09:08:00.615Z,101500
2023-03-17T09:09:00.584Z,101510
2023-03-17T09:10:00.552Z,101510
2023-03-17T09:11:00.530Z,101520
2023-03-17T09:12:01.079Z,101510
2023-03-17T09:13:00.861Z,101510
2023-03-17T09:14:00.501Z,101510
2023-03-17T09:15:00.488Z,101510
2023-03-17T09:16:00.520Z,101520
2023-03-17T09:17:00.476Z,101510
2023-03-17T09:18:00.540Z,101510
2023-03-17T09:19:00.523Z,101500
2023-03-17T09:20:00.546Z,101510
2023-03-17T09:21:00.820Z,101510
2023-03-17T09:22:01.593Z,101510
2023-03-17T09:23:03.964Z,101510
2023-03-17T09:24:02.474Z,101500
2023-03-17T09:25:00.480Z,101510
2023-03-17T09:26:00.496Z,101510
2023-03-17T09:27:00.516Z,101500
2023-03-17T09:28:00.666Z,101500
2023-03-17T09:29:02.500Z,101500
2023-03-17T09:30:00.515Z,101500
2023-03-17T09:31:01.596Z,101500
2023-03-17T09:32:00.592Z,101500
2023-03-17T09:33:00.521Z,101500
2023-03-17T09:34:00.561Z,101500
2023-03-17T09:35:00.574Z,101510
2023-03-17T09:36:00.508Z,101510
2023-03-17T09:37:00.493Z,101510
2023-03-17T09:38:00.596Z,101510
2023-03-17T09:39:00.637Z,101510
2023-03-17T09:40:00.528Z,101510
2023-03-17T09:41:10.419Z,101510
2023-03-17T09:42:10.353Z,101510
2023-03-17T09:43:10.331Z,101510
2023-03-17T09:44:07.022Z,101510
2023-03-17T09:45:10.356Z,101510
2023-03-17T09:46:06.679Z,101510
2023-03-17T09:47:08.371Z,101520
2023-03-17T09:48:07.819Z,101510
2023-03-17T09:49:01.785Z,101520
2023-03-17T09:50:02.009Z,101520
2023-03-17T09:51:10.345Z,101520
2023-03-17T09:52:00.708Z,101520
2023-03-17T09:53:03.970Z,101510
2023-03-17T09:54:02.240Z,101510
2023-03-17T09:55:01.932Z,101500
2023-03-17T09:56:06.819Z,101490
2023-03-17T09:57:09.311Z,101500
2023-03-17T09:58:00.502Z,101500
2023-03-17T09:59:10.586Z,101510
2023-03-17T10:00:04.257Z,101510
2023-03-17T10:01:01.330Z,101510
2023-03-17T10:02:00.555Z,101510
2023-03-17T10:03:00.471Z,101510
2023-03-17T10:04:00.914Z,101500
2023-03-17T10:05:09.307Z,101500
2023-03-17T10:06:12.765Z,101490
2023-03-17T10:07:03.103Z,101490
2023-03-17T10:08:19.069Z,101500
2023-03-17T10:09:05.155Z,101500
2023-03-17T10:10:01.952Z,101500
2023-03-17T10:11:10.353Z,101500
2023-03-17T10:12:00.449Z,101500
2023-03-17T10:13:00.542Z,101500
2023-03-17T10:14:03.795Z,101500
2023-03-17T10:15:01.378Z,101490
2023-03-17T10:16:05.047Z,101490
2023-03-17T10:17:01.512Z,101490
2023-03-17T10:18:01.646Z,101490
2023-03-17T10:19:03.540Z,101490
2023-03-17T10:20:04.976Z,101490
2023-03-17T10:21:02.826Z,101500
2023-03-17T10:22:04.292Z,101500
2023-03-17T10:23:03.012Z,101510
2023-03-17T10:24:02.400Z,101500
2023-03-17T10:25:04.358Z,101500
2023-03-17T10:26:06.596Z,101500
2023-03-17T10:27:02.127Z,101510
2023-03-17T10:28:01.618Z,101500
2023-03-17T10:29:01.410Z,101500
2023-03-17T10:30:00.536Z,101500
2023-03-17T10:31:09.555Z,101490
2023-03-17T10:32:00.566Z,101490
2023-03-17T10:33:02.006Z,101490
2023-03-17T10:34:10.343Z,101480
2023-03-17T10:35:00.605Z,101480
2023-03-17T10:36:10.429Z,101490
2023-03-17T10:37:10.330Z,101490
2023-03-17T10:38:13.730Z,101490
2023-03-17T10:39:02.287Z,101510
2023-03-17T10:40:02.817Z,101490
2023-03-17T10:41:05.379Z,101490
2023-03-17T10:42:09.731Z,101500
2023-03-17T10:43:02.179Z,101500
2023-03-17T10:44:00.676Z,101500
2023-03-17T10:45:10.321Z,101500
2023-03-17T10:46:02.577Z,101500
2023-03-17T10:47:00.633Z,101490
2023-03-17T10:48:01.886Z,101490
2023-03-17T10:49:05.173Z,101490
2023-03-17T10:50:10.356Z,101480
2023-03-17T10:51:04.239Z,101480
2023-03-17T10:52:05.040Z,101490
2023-03-17T10:53:05.495Z,101490
2023-03-17T10:54:01.393Z,101490
2023-03-17T10:55:03.349Z,101480
2023-03-17T10:56:09.295Z,101490
2023-03-17T10:57:02.097Z,101490
2023-03-17T10:58:01.561Z,101480
2023-03-17T10:59:04.761Z,101480
2023-03-17T11:00:01.110Z,101480
2023-03-17T11:01:04.479Z,101480
2023-03-17T11:02:05.991Z,101480
2023-03-17T11:03:03.631Z,101480
2023-03-17T11:04:00.510Z,101480
2023-03-17T11:05:06.636Z,101490
2023-03-17T11:06:01.878Z,101490
2023-03-17T11:07:05.594Z,101490
2023-03-17T11:08:10.465Z,101500
2023-03-17T11:09:05.901Z,101500
2023-03-17T11:10:01.283Z,101490
2023-03-17T11:11:03.584Z,101490
2023-03-17T11:12:02.151Z,101490
2023-03-17T11:13:00.998Z,101500
2023-03-17T11:14:10.416Z,101500
2023-03-17T11:15:01.511Z,101500
2023-03-17T11:16:01.479Z,101500
2023-03-17T11:17:02.056Z,101500
2023-03-17T11:18:01.674Z,101500
2023-03-17T11:19:00.965Z,101490
2023-03-17T11:20:10.358Z,101500
2023-03-17T11:21:00.469Z,101500
2023-03-17T11:22:10.345Z,101500
2023-03-17T11:23:03.879Z,101500
2023-03-17T11:24:06.254Z,101500
2023-03-17T11:25:08.659Z,101490
2023-03-17T11:26:06.400Z,101490
2023-03-17T11:27:06.948Z,101500
2023-03-17T11:28:10.310Z,101500
2023-03-17T11:29:00.494Z,101500
2023-03-17T11:30:10.575Z,101500
2023-03-17T11:31:00.529Z,101500
2023-03-17T11:32:01.622Z,101500
2023-03-17T11:33:09.031Z,101490
2023-03-17T11:34:05.636Z,101490
2023-03-17T11:35:10.374Z,101490
2023-03-17T11:36:10.414Z,101490
2023-03-17T11:37:03.235Z,101490
2023-03-17T11:38:07.831Z,101490
2023-03-17T11:39:03.999Z,101480
2023-03-17T11:40:10.334Z,101490
2023-03-17T11:41:04.034Z,101490
2023-03-17T11:42:00.436Z,101490
2023-03-17T11:43:03.828Z,101490
2023-03-17T11:44:00.499Z,101480
2023-03-17T11:45:00.468Z,101480
2023-03-17T11:46:10.405Z,101480
2023-03-17T11:47:03.859Z,101480
2023-03-17T11:48:10.341Z,101470
2023-03-17T11:49:10.360Z,101470
2023-03-17T11:50:06.691Z,101470
2023-03-17T11:51:08.010Z,101470
2023-03-17T11:52:00.518Z,101470
2023-03-17T11:53:00.485Z,101470
2023-03-17T11:54:01.463Z,101480
2023-03-17T11:55:10.339Z,101470
2023-03-17T11:56:02.649Z,101470
2023-03-17T11:57:04.121Z,101470
2023-03-17T11:58:04.439Z,101460
2023-03-17T11:59:04.155Z,101460
2023-03-17T12:00:10.367Z,101460
2023-03-17T12:01:01.849Z,101460
2023-03-17T12:02:09.819Z,101460
2023-03-17T12:03:00.469Z,101460
2023-03-17T12:04:10.387Z,101450
2023-03-17T12:05:10.365Z,101440
2023-03-17T12:06:01.807Z,101440
2023-03-17T12:07:03.956Z,101450
2023-03-17T12:08:00.447Z,101450
2023-03-17T12:09:10.360Z,101450
2023-03-17T12:10:10.364Z,101440
2023-03-17T12:11:04.633Z,101440
2023-03-17T12:12:02.073Z,101440
2023-03-17T12:13:04.449Z,101440
2023-03-17T12:14:03.230Z,101430
2023-03-17T12:15:00.792Z,101430
2023-03-17T12:16:04.158Z,101430
2023-03-17T12:17:01.522Z,101430
2023-03-17T12:18:05.589Z,101430
2023-03-17T12:19:06.497Z,101430
2023-03-17T12:20:00.483Z,101420
2023-03-17T12:21:08.228Z,101430
2023-03-17T12:22:05.091Z,101430
2023-03-17T12:23:04.612Z,101430
2023-03-17T12:24:10.358Z,101430
2023-03-17T12:25:01.503Z,101430
2023-03-17T12:26:04.692Z,101430
2023-03-17T12:27:03.108Z,101430
2023-03-17T12:28:01.443Z,101430
2023-03-17T12:29:03.813Z,101420
2023-03-17T12:30:10.396Z,101420
2023-03-17T12:31:03.636Z,101420
2023-03-17T12:32:03.853Z,101420
2023-03-17T12:33:08.654Z,101420
2023-03-17T12:34:10.332Z,101410
2023-03-17T12:35:03.906Z,101410
2023-03-17T12:36:01.309Z,101420
2023-03-17T12:37:01.212Z,101420
2023-03-17T12:38:05.650Z,101410
2023-03-17T12:39:05.664Z,101420
2023-03-17T12:40:05.174Z,101420
2023-03-17T12:41:10.379Z,101410
2023-03-17T12:42:00.485Z,101410
2023-03-17T12:43:09.924Z,101410
2023-03-17T12:44:10.325Z,101400
2023-03-17T12:45:10.337Z,101400
2023-03-17T12:46:07.659Z,101400
2023-03-17T12:47:03.818Z,101400
2023-03-17T12:48:10.340Z,101380
2023-03-17T12:49:10.352Z,101380
2023-03-17T12:50:00.474Z,101380
2023-03-17T12:51:07.801Z,101380
2023-03-17T12:52:10.384Z,101380
2023-03-17T12:53:10.330Z,101380
2023-03-17T12:54:00.514Z,101380
2023-03-17T12:55:02.292Z,101380
2023-03-17T12:56:08.987Z,101380
2023-03-17T12:57:05.134Z,101380
2023-03-17T12:58:03.880Z,101380
2023-03-17T12:59:05.047Z,101360
2023-03-17T13:00:05.633Z,101360
2023-03-17T13:01:05.933Z,101350
2023-03-17T13:02:10.337Z,101340
2023-03-17T13:03:08.034Z,101340
2023-03-17T13:04:03.513Z,101340
2023-03-17T13:05:04.640Z,101330
2023-03-17T13:06:02.021Z,101330
2023-03-17T13:07:04.052Z,101320
2023-03-17T13:08:03.950Z,101320
2023-03-17T13:09:10.322Z,101310
2023-03-17T13:10:10.355Z,101310
2023-03-17T13:11:10.366Z,101310
2023-03-17T13:12:01.112Z,101310
2023-03-17T13:13:10.324Z,101310
2023-03-17T13:14:10.360Z,101310
2023-03-17T13:15:00.572Z,101310
2023-03-17T13:16:02.588Z,101330
2023-03-17T13:17:05.092Z,101320
2023-03-17T13:18:10.350Z,101330
2023-03-17T13:19:10.387Z,101310
2023-03-17T13:20:07.861Z,101310
2023-03-17T13:21:00.475Z,101310
2023-03-17T13:22:03.815Z,101320
2023-03-17T13:23:10.351Z,101320
2023-03-17T13:24:10.370Z,101320
2023-03-17T13:25:10.369Z,101330
2023-03-17T13:26:00.519Z,101330
2023-03-17T13:27:01.287Z,101330
2023-03-17T13:28:10.539Z,101330
2023-03-17T13:29:01.533Z,101330
2023-03-17T13:30:10.428Z,101330
2023-03-17T13:31:00.528Z,101330
2023-03-17T13:32:10.358Z,101330
2023-03-17T13:33:10.513Z,101340
2023-03-17T13:34:07.840Z,101340
2023-03-17T13:35:00.509Z,101340
2023-03-17T13:36:03.939Z,101350
2023-03-17T13:37:02.872Z,101350
2023-03-17T13:38:10.324Z,101360
2023-03-17T13:39:19.256Z,101360
2023-03-17T13:40:10.938Z,101370
2023-03-17T13:41:00.640Z,101370
2023-03-17T13:42:11.851Z,101370
2023-03-17T13:43:10.349Z,101380
2023-03-17T13:44:07.883Z,101380
2023-03-17T13:45:09.362Z,101370
2023-03-17T13:46:10.462Z,101370
2023-03-17T13:47:10.348Z,101360
2023-03-17T13:48:10.327Z,101360